AFR7440 LFPG-LFBD
Flight info
| Callsign | AFR7440 |
|---|---|
| Flight time | N/A |
| Altitude | 30000 |
| Route | AGOPA6G/09R AGOPA DCT ARKIP DCT ARNAV DCT LMG LMG2L |
| Aircraft | A20N/M-SDE2E3FGHIRWXY/LB1 |
Departure
| Time | N/A |
|---|---|
| Airport | Charles de Gaulle International Airport (LFPG) |
Arrival
| Time | 2026-05-04 21:18 |
|---|---|
| Airport | Bordeaux–Mérignac Airport (LFBD) |
| Time | Latitude | Longitude | Altitude | Speed | Heading |
|---|---|---|---|---|---|
| 2026-05-04 20:53 | 46.36079 | 1.32055 | 29907 ft | 410 kts | 198° |
| 2026-05-04 20:53 | 46.33415 | 1.30599 | 29910 ft | 410 kts | 198° |
| 2026-05-04 20:53 | 46.28109 | 1.27705 | 29904 ft | 410 kts | 198° |
| 2026-05-04 20:54 | 46.22787 | 1.24808 | 29907 ft | 410 kts | 198° |
| 2026-05-04 20:54 | 46.17454 | 1.21912 | 29906 ft | 410 kts | 198° |
| 2026-05-04 20:55 | 46.12119 | 1.19022 | 29907 ft | 409 kts | 198° |
| 2026-05-04 20:55 | 46.06817 | 1.16153 | 29907 ft | 409 kts | 198° |
| 2026-05-04 20:56 | 46.01482 | 1.13275 | 29909 ft | 409 kts | 198° |
| 2026-05-04 20:56 | 45.96184 | 1.10419 | 29828 ft | 408 kts | 198° |
| 2026-05-04 20:57 | 45.90861 | 1.07560 | 29909 ft | 409 kts | 198° |
| 2026-05-04 20:57 | 45.85554 | 1.04615 | 29916 ft | 410 kts | 203° |
| 2026-05-04 20:58 | 45.80794 | 1.00046 | 29838 ft | 419 kts | 218° |
| 2026-05-04 20:58 | 45.78773 | 0.97022 | 29326 ft | 422 kts | 226° |
| 2026-05-04 20:58 | 45.77031 | 0.93729 | 28750 ft | 420 kts | 229° |
| 2026-05-04 20:59 | 45.75326 | 0.90363 | 28184 ft | 416 kts | 230° |
| 2026-05-04 20:59 | 45.73652 | 0.87048 | 27610 ft | 416 kts | 230° |
| 2026-05-04 20:59 | 45.71955 | 0.83699 | 26988 ft | 418 kts | 230° |
| 2026-05-04 20:59 | 45.70243 | 0.80332 | 26254 ft | 419 kts | 230° |
| 2026-05-04 21:00 | 45.68523 | 0.76959 | 25570 ft | 419 kts | 230° |
| 2026-05-04 21:00 | 45.66827 | 0.73639 | 24905 ft | 421 kts | 230° |
| 2026-05-04 21:00 | 45.65089 | 0.70245 | 24181 ft | 421 kts | 230° |
| 2026-05-04 21:00 | 45.63369 | 0.66887 | 23716 ft | 416 kts | 230° |
| 2026-05-04 21:01 | 45.61680 | 0.63593 | 23265 ft | 412 kts | 230° |
| 2026-05-04 21:01 | 45.59998 | 0.60318 | 22764 ft | 409 kts | 230° |
| 2026-05-04 21:01 | 45.58340 | 0.57094 | 22256 ft | 405 kts | 231° |
| 2026-05-04 21:01 | 45.56680 | 0.53874 | 21752 ft | 402 kts | 231° |
| 2026-05-04 21:02 | 45.55053 | 0.50714 | 21406 ft | 392 kts | 231° |
| 2026-05-04 21:02 | 45.53448 | 0.47602 | 21158 ft | 381 kts | 231° |
| 2026-05-04 21:02 | 45.51912 | 0.44627 | 20977 ft | 369 kts | 231° |
| 2026-05-04 21:02 | 45.50422 | 0.41746 | 20794 ft | 360 kts | 231° |
| 2026-05-04 21:03 | 45.48932 | 0.38872 | 20614 ft | 358 kts | 231° |
| 2026-05-04 21:03 | 45.47459 | 0.36033 | 20453 ft | 357 kts | 231° |
| 2026-05-04 21:03 | 45.45983 | 0.33191 | 20293 ft | 354 kts | 230° |
| 2026-05-04 21:03 | 45.44551 | 0.30433 | 20073 ft | 345 kts | 230° |
| 2026-05-04 21:04 | 45.43150 | 0.27736 | 19925 ft | 333 kts | 230° |
| 2026-05-04 21:04 | 45.41784 | 0.25112 | 19560 ft | 329 kts | 230° |
| 2026-05-04 21:04 | 45.40449 | 0.22552 | 19210 ft | 324 kts | 230° |
| 2026-05-04 21:04 | 45.39128 | 0.20022 | 18706 ft | 317 kts | 230° |
| 2026-05-04 21:05 | 45.37827 | 0.17534 | 18138 ft | 310 kts | 231° |
| 2026-05-04 21:05 | 45.36554 | 0.15099 | 17526 ft | 305 kts | 231° |
| 2026-05-04 21:05 | 45.35306 | 0.12713 | 16847 ft | 303 kts | 231° |
| 2026-05-04 21:05 | 45.34064 | 0.10302 | 16143 ft | 301 kts | 232° |
| 2026-05-04 21:06 | 45.32857 | 0.07940 | 15458 ft | 299 kts | 232° |
| 2026-05-04 21:06 | 45.31644 | 0.05575 | 14770 ft | 297 kts | 233° |
| 2026-05-04 21:06 | 45.30428 | 0.03204 | 14066 ft | 296 kts | 233° |
| 2026-05-04 21:06 | 45.29225 | 0.00861 | 13386 ft | 294 kts | 233° |
| 2026-05-04 21:07 | 45.28028 | -0.01469 | 12717 ft | 291 kts | 233° |
| 2026-05-04 21:07 | 45.26849 | -0.03762 | 12025 ft | 288 kts | 233° |
| 2026-05-04 21:07 | 45.25687 | -0.06021 | 11324 ft | 286 kts | 233° |
| 2026-05-04 21:07 | 45.24528 | -0.08274 | 10619 ft | 284 kts | 233° |
| 2026-05-04 21:08 | 45.23357 | -0.10543 | 9919 ft | 281 kts | 233° |
| 2026-05-04 21:08 | 45.22221 | -0.12739 | 9248 ft | 278 kts | 234° |
| 2026-05-04 21:08 | 45.21081 | -0.14942 | 8550 ft | 276 kts | 234° |
| 2026-05-04 21:08 | 45.19959 | -0.17111 | 7855 ft | 275 kts | 235° |
| 2026-05-04 21:09 | 45.18836 | -0.19280 | 7207 ft | 273 kts | 235° |
| 2026-05-04 21:09 | 45.17728 | -0.21418 | 6612 ft | 273 kts | 235° |
| 2026-05-04 21:09 | 45.16544 | -0.23508 | 6192 ft | 272 kts | 230° |
| 2026-05-04 21:09 | 45.15240 | -0.25465 | 5828 ft | 270 kts | 228° |
| 2026-05-04 21:10 | 45.13935 | -0.27349 | 5466 ft | 269 kts | 227° |
| 2026-05-04 21:10 | 45.12622 | -0.29216 | 5105 ft | 267 kts | 227° |
| 2026-05-04 21:10 | 45.11315 | -0.31056 | 4966 ft | 265 kts | 227° |
| 2026-05-04 21:10 | 45.10001 | -0.32909 | 4962 ft | 268 kts | 227° |
| 2026-05-04 21:11 | 45.08682 | -0.34770 | 4961 ft | 268 kts | 227° |
| 2026-05-04 21:11 | 45.07356 | -0.36643 | 4960 ft | 269 kts | 227° |
| 2026-05-04 21:11 | 45.06060 | -0.38479 | 4869 ft | 267 kts | 227° |
| 2026-05-04 21:11 | 45.04734 | -0.40358 | 4617 ft | 267 kts | 228° |
| 2026-05-04 21:12 | 45.03436 | -0.42198 | 4356 ft | 262 kts | 227° |
| 2026-05-04 21:12 | 45.02170 | -0.43997 | 4102 ft | 257 kts | 228° |
| 2026-05-04 21:12 | 45.00914 | -0.45785 | 3845 ft | 252 kts | 228° |
| 2026-05-04 21:12 | 44.99701 | -0.47512 | 3594 ft | 248 kts | 228° |
| 2026-05-04 21:13 | 44.98497 | -0.49228 | 3348 ft | 243 kts | 228° |
| 2026-05-04 21:13 | 44.97322 | -0.50902 | 3139 ft | 238 kts | 229° |
| 2026-05-04 21:13 | 44.96174 | -0.52537 | 2977 ft | 229 kts | 228° |
| 2026-05-04 21:13 | 44.95092 | -0.54074 | 2956 ft | 214 kts | 229° |
| 2026-05-04 21:14 | 44.94078 | -0.55520 | 2917 ft | 198 kts | 230° |
| 2026-05-04 21:14 | 44.93151 | -0.56840 | 2722 ft | 188 kts | 230° |
| 2026-05-04 21:14 | 44.92243 | -0.58137 | 2521 ft | 178 kts | 231° |
| 2026-05-04 21:14 | 44.91398 | -0.59345 | 2299 ft | 173 kts | 231° |
| 2026-05-04 21:15 | 44.90578 | -0.60512 | 2067 ft | 160 kts | 231° |
| 2026-05-04 21:15 | 44.89820 | -0.61592 | 1808 ft | 149 kts | 231° |
| 2026-05-04 21:15 | 44.89105 | -0.62622 | 1548 ft | 141 kts | 232° |
| 2026-05-04 21:15 | 44.88424 | -0.63611 | 1345 ft | 143 kts | 231° |
| 2026-05-04 21:16 | 44.87726 | -0.64613 | 1199 ft | 142 kts | 230° |
| 2026-05-04 21:16 | 44.87024 | -0.65603 | 1021 ft | 145 kts | 229° |
| 2026-05-04 21:16 | 44.86313 | -0.66605 | 861 ft | 144 kts | 229° |
| 2026-05-04 21:16 | 44.85617 | -0.67610 | 689 ft | 144 kts | 228° |
| 2026-05-04 21:17 | 44.84899 | -0.68625 | 473 ft | 145 kts | 228° |
| 2026-05-04 21:17 | 44.84187 | -0.69638 | 264 ft | 145 kts | 228° |
| 2026-05-04 21:17 | 44.83508 | -0.70613 | 156 ft | 131 kts | 226° |
| 2026-05-04 21:17 | 44.82985 | -0.71370 | 165 ft | 83 kts | 225° |
| 2026-05-04 21:18 | 44.82696 | -0.71778 | 163 ft | 34 kts | 227° |
| 2026-05-04 21:18 | 44.82552 | -0.71927 | 162 ft | 16 kts | 165° |
| 2026-05-04 21:18 | 44.82481 | -0.71815 | 163 ft | 15 kts | 123° |
| 2026-05-04 21:18 | 44.82457 | -0.71767 | 163 ft | 0 kts | 124° |
| 2026-05-04 21:19 | 44.82452 | -0.71755 | 163 ft | 7 kts | 117° |
| 2026-05-04 21:19 | 44.82476 | -0.71657 | 163 ft | 14 kts | 58° |
| 2026-05-04 21:19 | 44.82552 | -0.71531 | 165 ft | 18 kts | 45° |
| 2026-05-04 21:20 | 44.82654 | -0.71386 | 165 ft | 21 kts | 45° |
| 2026-05-04 21:20 | 44.82755 | -0.71243 | 166 ft | 20 kts | 45° |
| 2026-05-04 21:20 | 44.82856 | -0.71098 | 166 ft | 20 kts | 45° |
| 2026-05-04 21:20 | 44.82959 | -0.70949 | 163 ft | 22 kts | 45° |
| 2026-05-04 21:21 | 44.83070 | -0.70791 | 159 ft | 23 kts | 44° |
| 2026-05-04 21:21 | 44.83180 | -0.70632 | 156 ft | 14 kts | 45° |
| 2026-05-04 21:21 | 44.83192 | -0.70540 | 156 ft | 10 kts | 114° |
| 2026-05-04 21:21 | 44.83210 | -0.70465 | 157 ft | 3 kts | 100° |
| 2026-05-04 21:22 | 44.83177 | -0.70445 | 157 ft | 5 kts | 169° |
| 2026-05-04 21:22 | 44.83139 | -0.70437 | 157 ft | 2 kts | 171° |
| 2026-05-04 21:22 | 44.83133 | -0.70436 | 157 ft | 0 kts | 171° |